createdAt,value
2023-04-11T00:00:25.461Z,0.90
2023-04-11T00:02:54.827Z,1.10
2023-04-11T00:05:22.957Z,1.50
2023-04-11T00:07:50.931Z,1.10
2023-04-11T00:10:19.270Z,1.20
2023-04-11T00:12:48.573Z,1.23
2023-04-11T00:15:17.520Z,1.20
2023-04-11T00:17:46.211Z,1.10
2023-04-11T00:20:16.656Z,0.90
2023-04-11T00:22:44.641Z,1.10
2023-04-11T00:25:15.043Z,1.23
2023-04-11T00:27:46.377Z,1.23
2023-04-11T00:30:18.366Z,1.20
2023-04-11T00:32:52.605Z,1.33
2023-04-11T00:35:21.486Z,1.37
2023-04-11T00:37:54.236Z,1.63
2023-04-11T00:40:23.970Z,1.50
2023-04-11T00:42:56.094Z,1.50
2023-04-11T00:45:25.640Z,1.63
2023-04-11T00:47:56.378Z,1.53
2023-04-11T00:50:24.982Z,1.70
2023-04-11T00:52:57.392Z,2.03
2023-04-11T00:55:25.386Z,1.60
2023-04-11T00:57:55.079Z,1.40
2023-04-11T01:00:25.308Z,2.43
2023-04-11T01:03:00.304Z,1.50
2023-04-11T01:05:31.471Z,1.90
2023-04-11T01:07:59.791Z,1.60
2023-04-11T01:10:31.649Z,1.70
2023-04-11T01:13:06.446Z,1.87
2023-04-11T01:15:40.411Z,1.97
2023-04-11T01:18:12.769Z,1.70
2023-04-11T01:20:42.213Z,1.90
2023-04-11T01:23:11.860Z,1.77
2023-04-11T01:25:44.612Z,1.80
2023-04-11T01:28:18.280Z,1.80
2023-04-11T01:30:46.561Z,2.03
2023-04-11T01:33:15.421Z,2.10
2023-04-11T01:35:44.647Z,2.03
2023-04-11T01:38:20.800Z,1.73
2023-04-11T01:40:54.112Z,2.20
2023-04-11T01:43:22.196Z,2.67
2023-04-11T01:45:51.959Z,1.93
2023-04-11T01:48:21.766Z,2.00
2023-04-11T01:50:51.010Z,1.60
2023-04-11T01:53:21.043Z,2.33
2023-04-11T01:55:49.035Z,1.97
2023-04-11T01:58:20.894Z,1.80
2023-04-11T02:00:49.046Z,2.20
2023-04-11T02:03:17.581Z,1.87
2023-04-11T02:05:46.027Z,1.90
2023-04-11T02:08:17.084Z,2.30
2023-04-11T02:10:48.985Z,2.40
2023-04-11T02:13:26.138Z,2.70
2023-04-11T02:15:56.077Z,2.10
2023-04-11T02:18:27.687Z,2.30
2023-04-11T02:20:56.597Z,2.77
2023-04-11T02:23:24.570Z,2.37
2023-04-11T02:25:55.117Z,3.00
2023-04-11T02:28:32.416Z,2.33
2023-04-11T02:31:00.469Z,2.00
2023-04-11T02:33:28.460Z,3.20
2023-04-11T02:35:56.451Z,2.57
2023-04-11T02:38:24.436Z,3.03
2023-04-11T02:40:55.105Z,3.00
2023-04-11T02:43:23.111Z,2.50
2023-04-11T02:46:01.922Z,3.10
2023-04-11T02:48:39.994Z,3.60
2023-04-11T02:51:08.195Z,3.03
2023-04-11T02:53:36.163Z,3.03
2023-04-11T02:56:07.807Z,3.13
2023-04-11T02:58:44.346Z,3.40
2023-04-11T03:01:21.643Z,3.00
2023-04-11T03:03:49.891Z,3.07
2023-04-11T03:06:23.262Z,2.93
2023-04-11T03:08:57.264Z,2.93
2023-04-11T03:11:25.777Z,3.00
2023-04-11T03:13:54.030Z,2.80
2023-04-11T03:16:27.825Z,3.97
2023-04-11T03:18:57.381Z,3.47
2023-04-11T03:21:25.705Z,3.60
2023-04-11T03:23:53.651Z,3.60
2023-04-11T03:26:21.857Z,3.33
2023-04-11T03:28:51.709Z,3.47
2023-04-11T03:31:30.820Z,3.40
2023-04-11T03:34:01.567Z,3.20
2023-04-11T03:36:32.666Z,3.10
2023-04-11T03:39:05.305Z,2.83
2023-04-11T03:41:33.718Z,3.87
2023-04-11T03:44:01.828Z,3.50
2023-04-11T03:46:32.535Z,3.23
2023-04-11T03:49:00.526Z,3.40
2023-04-11T03:51:31.575Z,3.00
2023-04-11T03:54:07.316Z,3.30
2023-04-11T03:56:41.535Z,3.00
2023-04-11T03:59:16.664Z,3.50
2023-04-11T04:02:00.814Z,3.20
2023-04-11T04:04:33.046Z,3.27
2023-04-11T04:07:18.019Z,3.53
2023-04-11T04:09:46.201Z,3.13
2023-04-11T04:12:19.132Z,3.33
2023-04-11T04:15:08.226Z,2.90
2023-04-11T04:17:38.275Z,3.50
2023-04-11T04:20:20.126Z,3.10
2023-04-11T04:22:55.125Z,3.10
2023-04-11T04:25:34.743Z,3.53
2023-04-11T04:28:03.279Z,4.10
2023-04-11T04:30:38.993Z,3.80
2023-04-11T04:33:18.739Z,3.20
2023-04-11T04:35:54.297Z,3.50
2023-04-11T04:38:28.900Z,3.17
2023-04-11T04:41:01.566Z,3.50
2023-04-11T04:43:32.327Z,3.37
2023-04-11T04:46:20.780Z,3.03
2023-04-11T04:48:54.054Z,3.37
2023-04-11T04:51:22.413Z,2.97
2023-04-11T04:53:52.870Z,3.40
2023-04-11T04:56:24.164Z,3.20
2023-04-11T04:58:54.261Z,3.43
2023-04-11T05:01:26.494Z,3.30
2023-04-11T05:04:00.470Z,3.07
2023-04-11T05:06:43.564Z,3.57
2023-04-11T05:09:11.645Z,3.73
2023-04-11T05:11:42.806Z,2.90
2023-04-11T05:14:13.616Z,3.50
2023-04-11T05:16:42.582Z,3.67
2023-04-11T05:19:12.236Z,3.60
2023-04-11T05:21:45.798Z,3.07
2023-04-11T05:24:31.601Z,3.57
2023-04-11T05:27:07.274Z,2.77
2023-04-11T05:29:40.415Z,3.00
2023-04-11T05:32:08.455Z,3.17
2023-04-11T05:34:52.095Z,3.27
2023-04-11T05:37:31.244Z,3.27
2023-04-11T05:40:02.226Z,3.30
2023-04-11T05:42:35.866Z,3.73
2023-04-11T05:45:03.834Z,3.27
2023-04-11T05:47:37.161Z,3.30
2023-04-11T05:50:14.405Z,2.90
2023-04-11T05:52:42.887Z,3.47
2023-04-11T05:55:14.100Z,3.70
2023-04-11T05:57:43.712Z,3.27
2023-04-11T06:00:16.898Z,3.10
2023-04-11T06:02:50.493Z,3.33
2023-04-11T06:05:26.645Z,3.13
2023-04-11T06:07:56.698Z,3.07
2023-04-11T06:10:24.732Z,3.43
2023-04-11T06:12:52.749Z,3.27
2023-04-11T06:15:28.949Z,3.53
2023-04-11T06:18:00.157Z,3.23
2023-04-11T06:20:30.577Z,3.17
2023-04-11T06:23:01.474Z,3.37
2023-04-11T06:25:40.532Z,3.10
2023-04-11T06:28:08.749Z,2.97
2023-04-11T06:30:43.661Z,2.97
2023-04-11T06:33:14.681Z,2.60
2023-04-11T06:35:46.750Z,2.97
2023-04-11T06:38:17.787Z,2.87
2023-04-11T06:40:51.548Z,3.30
2023-04-11T06:43:22.489Z,3.80
2023-04-11T06:45:55.551Z,3.23
2023-04-11T06:48:24.377Z,3.10
2023-04-11T06:50:53.821Z,3.40
2023-04-11T06:53:21.732Z,3.60
2023-04-11T06:55:49.785Z,3.73
2023-04-11T06:58:20.710Z,3.13
2023-04-11T07:00:54.179Z,3.73
2023-04-11T07:03:26.346Z,3.70
2023-04-11T07:06:00.179Z,3.57
2023-04-11T07:08:32.671Z,3.23
2023-04-11T07:11:05.932Z,3.03
2023-04-11T07:13:33.899Z,3.80
2023-04-11T07:16:05.695Z,3.37
2023-04-11T07:18:37.192Z,3.40
2023-04-11T07:21:12.513Z,3.30
2023-04-11T07:23:46.061Z,3.07
2023-04-11T07:26:16.755Z,4.07
2023-04-11T07:28:47.456Z,4.00
2023-04-11T07:31:19.099Z,3.33
2023-04-11T07:33:50.145Z,3.97
2023-04-11T07:36:21.632Z,2.97
2023-04-11T07:38:52.337Z,2.73
2023-04-11T07:41:25.293Z,3.30
2023-04-11T07:43:53.308Z,3.47
2023-04-11T07:46:24.367Z,2.90
2023-04-11T07:48:56.991Z,2.70
2023-04-11T07:51:29.312Z,2.80
2023-04-11T07:54:02.708Z,2.93
2023-04-11T07:56:30.785Z,2.60
2023-04-11T07:59:01.466Z,3.63
2023-04-11T08:01:29.553Z,3.00
2023-04-11T08:03:59.766Z,3.63
2023-04-11T08:06:31.493Z,2.70
2023-04-11T08:09:04.981Z,2.40
2023-04-11T08:11:33.011Z,2.63
2023-04-11T08:14:00.984Z,2.17
2023-04-11T08:16:31.667Z,2.50
2023-04-11T08:18:59.677Z,3.07
2023-04-11T08:21:29.520Z,2.37
2023-04-11T08:24:01.709Z,2.27
2023-04-11T08:26:31.080Z,2.50
2023-04-11T08:29:02.254Z,2.10
2023-04-11T08:31:30.296Z,2.40
2023-04-11T08:34:07.511Z,2.30
2023-04-11T08:36:37.041Z,1.80
2023-04-11T08:39:08.932Z,2.53
2023-04-11T08:41:37.232Z,2.30
2023-04-11T08:44:05.676Z,2.03
2023-04-11T08:46:37.418Z,2.20
2023-04-11T08:49:05.495Z,2.33
2023-04-11T08:51:33.561Z,2.40
2023-04-11T08:54:05.921Z,1.63
2023-04-11T08:56:37.943Z,2.53
2023-04-11T08:59:08.735Z,1.43
2023-04-11T09:01:40.786Z,1.57
2023-04-11T09:04:10.584Z,1.70
2023-04-11T09:06:40.204Z,1.60
2023-04-11T09:09:29.761Z,1.90
2023-04-11T09:12:01.156Z,1.83
2023-04-11T09:14:32.022Z,2.13
2023-04-11T09:17:01.897Z,1.83
2023-04-11T09:19:31.522Z,1.80
2023-04-11T09:22:01.394Z,1.70
2023-04-11T09:24:35.611Z,1.33
2023-04-11T09:27:11.801Z,1.90
2023-04-11T09:29:46.324Z,1.83
2023-04-11T09:32:33.703Z,1.57
2023-04-11T09:35:11.887Z,1.43
2023-04-11T09:37:44.993Z,1.93
2023-04-11T09:40:14.999Z,1.50
2023-04-11T09:42:43.282Z,1.50
2023-04-11T09:45:19.470Z,2.30
2023-04-11T09:47:48.747Z,1.90
2023-04-11T09:50:17.737Z,1.77
2023-04-11T09:52:46.761Z,1.90
2023-04-11T09:55:19.547Z,1.80
2023-04-11T09:57:50.963Z,1.80
2023-04-11T10:00:22.898Z,1.53
2023-04-11T10:02:55.348Z,1.83
2023-04-11T10:05:31.727Z,2.47
2023-04-11T10:08:12.351Z,1.73
2023-04-11T10:10:56.315Z,1.70
2023-04-11T10:13:43.759Z,1.73
2023-04-11T10:16:15.385Z,1.73
2023-04-11T10:19:28.560Z,1.77
2023-04-11T10:21:58.984Z,1.90
2023-04-11T10:24:30.846Z,2.10
2023-04-11T10:27:03.717Z,1.90
2023-04-11T10:29:52.207Z,2.10
2023-04-11T10:32:26.497Z,1.67
2023-04-11T10:35:24.010Z,1.90
2023-04-11T10:37:55.433Z,1.60
2023-04-11T10:40:27.224Z,1.77
2023-04-11T10:43:01.360Z,1.60
2023-04-11T10:45:32.410Z,1.57
2023-04-11T10:48:05.636Z,2.03
2023-04-11T10:50:37.023Z,1.70
2023-04-11T10:53:14.407Z,2.03
2023-04-11T10:55:47.739Z,1.97
2023-04-11T10:58:19.826Z,1.70
2023-04-11T11:01:26.315Z,1.70
2023-04-11T11:04:04.311Z,2.57
2023-04-11T11:06:47.432Z,1.97
2023-04-11T11:09:25.124Z,2.20
2023-04-11T11:12:18.317Z,2.10
2023-04-11T11:14:52.890Z,2.50
2023-04-11T11:17:27.193Z,2.50
2023-04-11T11:20:03.197Z,2.43
2023-04-11T11:22:31.208Z,2.63
2023-04-11T11:25:13.124Z,2.23
2023-04-11T11:27:43.076Z,2.10
2023-04-11T11:30:18.800Z,2.70
2023-04-11T11:32:46.849Z,2.33
2023-04-11T11:35:16.938Z,2.40
2023-04-11T11:37:52.078Z,1.80
2023-04-11T11:40:26.016Z,2.20
2023-04-11T11:42:56.257Z,1.90
2023-04-11T11:45:27.825Z,1.63
2023-04-11T11:47:55.940Z,2.00
2023-04-11T11:50:28.737Z,2.07
2023-04-11T11:52:59.823Z,2.10
2023-04-11T11:55:35.171Z,1.87
2023-04-11T11:58:03.654Z,2.10
2023-04-11T12:00:39.728Z,1.93
2023-04-11T12:03:11.794Z,2.17
2023-04-11T12:05:43.888Z,1.67
2023-04-11T12:08:12.347Z,2.00
2023-04-11T12:10:53.232Z,2.03
2023-04-11T12:13:27.502Z,1.37
2023-04-11T12:15:58.257Z,2.77
2023-04-11T12:18:28.904Z,1.50
2023-04-11T12:20:58.515Z,1.77
2023-04-11T12:23:39.821Z,2.00
2023-04-11T12:26:08.281Z,1.97
2023-04-11T12:28:44.920Z,1.57
2023-04-11T12:31:15.718Z,1.70
2023-04-11T12:33:45.835Z,1.93
2023-04-11T12:36:19.692Z,1.50
2023-04-11T12:38:52.296Z,1.33
2023-04-11T12:41:32.229Z,1.80
2023-04-11T12:44:04.049Z,1.40
2023-04-11T12:46:38.320Z,1.30
2023-04-11T12:49:09.113Z,1.60
2023-04-11T12:51:37.112Z,1.87
2023-04-11T12:54:09.203Z,1.70
2023-04-11T12:56:37.158Z,1.73
2023-04-11T12:59:06.299Z,1.53
2023-04-11T13:01:37.373Z,1.70
2023-04-11T13:04:06.988Z,1.43
2023-04-11T13:06:38.552Z,1.50
2023-04-11T13:09:07.787Z,1.50
2023-04-11T13:11:38.552Z,1.50
2023-04-11T13:14:09.347Z,2.10
2023-04-11T13:16:40.678Z,1.30
2023-04-11T13:19:11.419Z,1.37
2023-04-11T13:21:39.452Z,1.40
2023-04-11T13:24:07.629Z,1.40
2023-04-11T13:26:39.526Z,1.90
2023-04-11T13:29:07.909Z,1.40
2023-04-11T13:31:42.070Z,1.43
2023-04-11T13:34:14.057Z,1.73
2023-04-11T13:36:42.715Z,1.50
2023-04-11T13:39:11.246Z,1.80
2023-04-11T13:41:41.880Z,1.53
2023-04-11T13:44:15.004Z,1.43
2023-04-11T13:46:48.271Z,1.50
2023-04-11T13:49:22.291Z,1.90
2023-04-11T13:51:53.029Z,1.27
2023-04-11T13:54:21.100Z,1.60
2023-04-11T13:56:49.058Z,1.80
2023-04-11T13:59:19.258Z,1.57
2023-04-11T14:01:47.435Z,1.70
2023-04-11T14:04:15.665Z,1.70
2023-04-11T14:06:45.066Z,1.37
2023-04-11T14:09:14.949Z,1.93
2023-04-11T14:11:45.951Z,1.90
2023-04-11T14:14:16.371Z,1.70
2023-04-11T14:16:44.707Z,1.67
2023-04-11T14:19:12.967Z,1.93
2023-04-11T14:21:41.250Z,1.50
2023-04-11T14:24:16.394Z,1.33
2023-04-11T14:26:44.434Z,1.50
2023-04-11T14:29:12.609Z,1.80
2023-04-11T14:31:42.545Z,1.73
2023-04-11T14:34:12.942Z,1.90
2023-04-11T14:36:43.525Z,1.90
2023-04-11T14:39:18.663Z,1.37
2023-04-11T14:41:49.540Z,1.57
2023-04-11T14:44:17.661Z,2.13
2023-04-11T14:46:45.861Z,1.77
2023-04-11T14:49:16.145Z,2.10
2023-04-11T14:51:44.137Z,1.60
2023-04-11T14:54:17.663Z,1.83
2023-04-11T14:56:45.754Z,1.90
2023-04-11T14:59:16.742Z,1.73
2023-04-11T15:01:47.627Z,1.93
2023-04-11T15:04:16.097Z,2.57
2023-04-11T15:06:44.397Z,1.63
2023-04-11T15:09:19.818Z,1.83
2023-04-11T15:11:50.953Z,2.10
2023-04-11T15:14:20.916Z,1.60
2023-04-11T15:16:48.976Z,1.83
2023-04-11T15:19:17.750Z,1.60
2023-04-11T15:21:46.441Z,1.93
2023-04-11T15:24:17.070Z,1.50
2023-04-11T15:26:47.895Z,2.20
2023-04-11T15:29:16.707Z,2.03
2023-04-11T15:31:47.653Z,1.70
2023-04-11T15:34:16.840Z,2.37
2023-04-11T15:36:47.671Z,1.70
2023-04-11T15:39:17.533Z,1.63
2023-04-11T15:41:45.534Z,1.93
2023-04-11T15:44:23.726Z,1.70
2023-04-11T15:46:51.807Z,1.80
2023-04-11T15:49:23.250Z,2.00
2023-04-11T15:51:57.581Z,1.83
2023-04-11T15:54:30.140Z,1.67
2023-04-11T15:57:00.382Z,1.77
2023-04-11T15:59:33.667Z,1.73
2023-04-11T16:02:01.884Z,1.77
2023-04-11T16:04:32.960Z,2.00
2023-04-11T16:07:03.428Z,1.60
2023-04-11T16:09:32.896Z,1.73
2023-04-11T16:12:08.562Z,1.67
2023-04-11T16:14:39.642Z,1.50
2023-04-11T16:17:07.698Z,1.83
2023-04-11T16:19:36.037Z,1.60
2023-04-11T16:22:07.024Z,1.33
2023-04-11T16:24:41.073Z,1.60
2023-04-11T16:27:09.147Z,2.10
2023-04-11T16:29:37.345Z,2.20
2023-04-11T16:32:08.429Z,1.53
2023-04-11T16:34:41.450Z,2.03
2023-04-11T16:37:13.777Z,1.87
2023-04-11T16:39:46.171Z,2.30
2023-04-11T16:42:14.798Z,1.70
2023-04-11T16:44:43.082Z,2.43
2023-04-11T16:47:19.272Z,1.93
2023-04-11T16:49:47.555Z,1.80
2023-04-11T16:52:17.984Z,1.90
2023-04-11T16:54:47.480Z,1.90
2023-04-11T16:57:18.295Z,1.97
2023-04-11T16:59:46.611Z,1.80
2023-04-11T17:02:21.106Z,1.73
2023-04-11T17:07:57.552Z,2.07
2023-04-11T17:10:32.439Z,1.70
2023-04-11T17:13:00.810Z,1.83
2023-04-11T17:15:39.368Z,2.10
2023-04-11T17:18:07.875Z,1.80
2023-04-11T17:20:41.528Z,1.87
2023-04-11T17:23:14.042Z,1.60
2023-04-11T17:25:53.506Z,2.00
2023-04-11T17:28:24.671Z,2.27
2023-04-11T17:31:06.642Z,2.47
2023-04-11T17:33:41.101Z,2.47
2023-04-11T17:36:12.763Z,1.83
2023-04-11T17:38:43.727Z,2.23
2023-04-11T17:41:15.394Z,2.00
2023-04-11T17:43:49.641Z,1.70
2023-04-11T17:46:26.411Z,2.00
2023-04-11T17:48:57.260Z,2.00
2023-04-11T17:51:27.573Z,2.20
2023-04-11T17:53:58.699Z,2.07
2023-04-11T17:56:33.919Z,2.30
2023-04-11T17:59:06.428Z,2.00
2023-04-11T18:01:34.844Z,2.03
2023-04-11T18:04:14.019Z,1.90
2023-04-11T18:06:46.432Z,2.43
2023-04-11T18:09:15.723Z,1.80
2023-04-11T18:11:45.965Z,2.20
2023-04-11T18:14:17.761Z,2.27
2023-04-11T18:16:47.167Z,2.40
2023-04-11T18:19:20.106Z,1.90
2023-04-11T18:21:49.449Z,2.60
2023-04-11T18:24:20.596Z,1.93
2023-04-11T18:26:55.004Z,2.13
2023-04-11T18:29:25.946Z,1.83
2023-04-11T18:31:56.087Z,2.47
2023-04-11T18:34:27.455Z,2.20
2023-04-11T18:36:55.998Z,2.20
2023-04-11T18:39:25.980Z,1.97
2023-04-11T18:41:58.953Z,1.97
2023-04-11T18:44:33.947Z,2.13
2023-04-11T18:47:05.420Z,1.97
2023-04-11T18:49:34.760Z,1.93
2023-04-11T18:52:04.308Z,2.23
2023-04-11T18:54:35.699Z,1.80
2023-04-11T18:57:06.411Z,2.67
2023-04-11T18:59:43.527Z,2.27
2023-04-11T19:02:14.220Z,1.93
2023-04-11T19:04:47.206Z,2.20
2023-04-11T19:07:21.345Z,2.17
2023-04-11T19:09:53.297Z,1.97
2023-04-11T19:12:33.418Z,2.33
2023-04-11T19:15:06.614Z,2.10
2023-04-11T19:17:38.865Z,2.23
2023-04-11T19:20:13.690Z,2.43
2023-04-11T19:22:42.445Z,1.93
2023-04-11T19:25:14.722Z,2.03
2023-04-11T19:27:44.492Z,2.00
2023-04-11T19:30:14.546Z,2.00
2023-04-11T19:32:47.710Z,2.07
2023-04-11T19:35:21.713Z,1.83
2023-04-11T19:37:52.877Z,2.10
2023-04-11T19:40:29.952Z,1.90
2023-04-11T19:43:03.728Z,2.10
2023-04-11T19:45:32.648Z,2.00
2023-04-11T19:48:01.376Z,2.03
2023-04-11T19:50:38.281Z,2.20
2023-04-11T19:53:07.196Z,1.87
2023-04-11T19:55:35.375Z,2.50
2023-04-11T19:58:12.213Z,1.90
2023-04-11T20:00:46.009Z,2.10
2023-04-11T20:03:26.711Z,2.03
2023-04-11T20:05:58.235Z,1.77
2023-04-11T20:08:33.487Z,2.10
2023-04-11T20:11:05.595Z,2.07
2023-04-11T20:13:36.870Z,2.10
2023-04-11T20:16:12.927Z,2.10
2023-04-11T20:18:41.020Z,2.00
2023-04-11T20:21:11.973Z,1.87
2023-04-11T20:23:47.228Z,1.97
2023-04-11T20:26:15.409Z,1.97
2023-04-11T20:28:49.413Z,1.67
2023-04-11T20:31:17.510Z,2.07
2023-04-11T20:33:50.926Z,2.03
2023-04-11T20:36:24.183Z,1.70
2023-04-11T20:38:55.128Z,1.90
2023-04-11T20:41:24.481Z,1.87
2023-04-11T20:43:59.733Z,2.20
2023-04-11T20:46:29.937Z,1.60
2023-04-11T20:49:02.604Z,2.10
2023-04-11T20:51:30.603Z,2.27
2023-04-11T20:54:00.781Z,2.00
2023-04-11T20:56:35.050Z,1.83
2023-04-11T20:59:09.086Z,1.67
2023-04-11T21:01:40.551Z,1.47
2023-04-11T21:04:13.605Z,2.03
2023-04-11T21:06:49.643Z,2.13
2023-04-11T21:09:17.649Z,2.30
2023-04-11T21:11:54.018Z,2.00
2023-04-11T21:14:25.391Z,2.00
2023-04-11T21:17:05.362Z,2.20
2023-04-11T21:19:38.295Z,2.20
2023-04-11T21:22:07.861Z,1.97
2023-04-11T21:24:42.665Z,2.37
2023-04-11T21:27:12.456Z,1.90
2023-04-11T21:29:41.759Z,2.13
2023-04-11T21:32:09.709Z,2.00
2023-04-11T21:34:40.430Z,2.10
2023-04-11T21:37:11.409Z,1.90
2023-04-11T21:39:40.653Z,1.60
2023-04-11T21:42:09.930Z,2.47
2023-04-11T21:44:38.222Z,2.00
2023-04-11T21:47:09.976Z,2.00
2023-04-11T21:49:42.789Z,2.13
2023-04-11T21:52:13.683Z,2.30
2023-04-11T21:54:48.279Z,2.23
2023-04-11T21:57:23.442Z,2.13
2023-04-11T21:59:55.839Z,2.57
2023-04-11T22:02:31.436Z,2.10
2023-04-11T22:05:07.060Z,2.00
2023-04-11T22:07:39.653Z,2.13
2023-04-11T22:10:11.588Z,2.13
2023-04-11T22:12:40.264Z,2.00
2023-04-11T22:15:12.895Z,2.13
2023-04-11T22:17:50.520Z,2.40
2023-04-11T22:20:19.920Z,2.00
2023-04-11T22:22:51.020Z,2.40
2023-04-11T22:25:22.095Z,1.80
2023-04-11T22:27:54.651Z,2.03
2023-04-11T22:30:24.283Z,1.90
2023-04-11T22:32:55.623Z,2.20
2023-04-11T22:35:29.780Z,2.23
2023-04-11T22:37:58.353Z,1.90
2023-04-11T22:40:26.377Z,2.00
2023-04-11T22:42:55.142Z,2.10
2023-04-11T22:45:24.161Z,2.57
2023-04-11T22:47:56.713Z,1.90
2023-04-11T22:50:25.638Z,2.20
2023-04-11T22:52:56.360Z,1.83
2023-04-11T22:55:24.960Z,1.80
2023-04-11T22:57:55.559Z,2.50
2023-04-11T23:00:24.148Z,2.07
2023-04-11T23:02:54.683Z,1.90
2023-04-11T23:05:22.657Z,1.97
2023-04-11T23:07:51.123Z,2.00
2023-04-11T23:10:21.158Z,1.87
2023-04-11T23:12:49.427Z,2.10
2023-04-11T23:15:17.819Z,1.90
2023-04-11T23:17:47.429Z,2.00
2023-04-11T23:20:17.710Z,1.70
2023-04-11T23:22:50.399Z,1.60
2023-04-11T23:25:20.233Z,2.00
2023-04-11T23:27:48.180Z,1.90
2023-04-11T23:30:17.394Z,2.07
2023-04-11T23:32:45.462Z,1.97
2023-04-11T23:35:13.430Z,2.17
2023-04-11T23:37:42.724Z,1.93
2023-04-11T23:40:14.069Z,2.00
2023-04-11T23:42:42.660Z,2.07
2023-04-11T23:45:15.136Z,2.00
2023-04-11T23:47:43.138Z,2.23
2023-04-11T23:50:12.139Z,1.77
2023-04-11T23:52:43.416Z,2.10
2023-04-11T23:55:14.383Z,1.90
2023-04-11T23:57:43.580Z,1.90
